sensor_id;sensor_type;location;lat;lon;timestamp;pressure;altitude;pressure_sealevel;temperature;humidity
69035;BME280;56091;55.756;37.412;2023-03-13T00:03:43;97585.13;;;-5.79;79.97
69035;BME280;56091;55.756;37.412;2023-03-13T00:08:44;97570.56;;;-5.82;79.92
69035;BME280;56091;55.756;37.412;2023-03-13T00:13:45;97577.63;;;-5.82;80.25
69035;BME280;56091;55.756;37.412;2023-03-13T00:18:48;97591.34;;;-5.87;79.58
69035;BME280;56091;55.756;37.412;2023-03-13T00:23:49;97588.34;;;-5.84;79.98
69035;BME280;56091;55.756;37.412;2023-03-13T00:28:50;97600.09;;;-5.80;79.79
69035;BME280;56091;55.756;37.412;2023-03-13T00:33:55;97600.44;;;-5.90;79.44
69035;BME280;56091;55.756;37.412;2023-03-13T00:38:57;97613.78;;;-5.84;79.23
69035;BME280;56091;55.756;37.412;2023-03-13T00:44:01;97623.91;;;-5.81;79.48
69035;BME280;56091;55.756;37.412;2023-03-13T00:49:05;97614.00;;;-5.86;79.69
69035;BME280;56091;55.756;37.412;2023-03-13T00:54:08;97630.41;;;-5.77;79.38
69035;BME280;56091;55.756;37.412;2023-03-13T00:59:11;97641.09;;;-5.79;79.95
69035;BME280;56091;55.756;37.412;2023-03-13T01:04:14;97656.41;;;-5.82;80.34
69035;BME280;56091;55.756;37.412;2023-03-13T01:09:18;97658.56;;;-5.99;80.60
69035;BME280;56091;55.756;37.412;2023-03-13T01:14:19;97676.28;;;-6.01;80.76
69035;BME280;56091;55.756;37.412;2023-03-13T01:19:21;97685.50;;;-6.12;81.15
69035;BME280;56091;55.756;37.412;2023-03-13T01:24:21;97685.81;;;-6.22;81.60
69035;BME280;56091;55.756;37.412;2023-03-13T01:29:26;97706.19;;;-6.24;81.77
69035;BME280;56091;55.756;37.412;2023-03-13T01:34:29;97716.78;;;-6.32;81.56
69035;BME280;56091;55.756;37.412;2023-03-13T01:39:31;97730.72;;;-6.32;81.71
69035;BME280;56091;55.756;37.412;2023-03-13T01:44:52;97742.13;;;-6.39;81.90
69035;BME280;56091;55.756;37.412;2023-03-13T01:49:53;97745.88;;;-6.49;82.00
69035;BME280;56091;55.756;37.412;2023-03-13T01:55:33;97752.22;;;-6.58;82.33
69035;BME280;56091;55.756;37.412;2023-03-13T02:00:35;97768.75;;;-6.57;82.16
69035;BME280;56091;55.756;37.412;2023-03-13T02:05:37;97788.31;;;-6.60;82.41
69035;BME280;56091;55.756;37.412;2023-03-13T02:10:42;97792.94;;;-6.62;82.49
69035;BME280;56091;55.756;37.412;2023-03-13T02:15:46;97792.66;;;-6.67;82.77
69035;BME280;56091;55.756;37.412;2023-03-13T02:20:49;97804.69;;;-6.73;82.68
69035;BME280;56091;55.756;37.412;2023-03-13T02:25:52;97804.03;;;-6.75;83.01
69035;BME280;56091;55.756;37.412;2023-03-13T02:30:59;97826.38;;;-6.79;83.02
69035;BME280;56091;55.756;37.412;2023-03-13T02:36:01;97833.41;;;-6.79;83.27
69035;BME280;56091;55.756;37.412;2023-03-13T02:41:04;97843.28;;;-6.81;83.04
69035;BME280;56091;55.756;37.412;2023-03-13T02:46:12;97851.50;;;-6.84;82.94
69035;BME280;56091;55.756;37.412;2023-03-13T02:51:36;97847.25;;;-6.85;82.64
69035;BME280;56091;55.756;37.412;2023-03-13T02:56:43;97864.16;;;-6.88;82.37
69035;BME280;56091;55.756;37.412;2023-03-13T03:01:45;97877.44;;;-6.90;82.53
69035;BME280;56091;55.756;37.412;2023-03-13T03:06:47;97880.63;;;-6.94;82.31
69035;BME280;56091;55.756;37.412;2023-03-13T03:11:48;97883.75;;;-6.99;82.29
69035;BME280;56091;55.756;37.412;2023-03-13T03:16:50;97896.84;;;-6.99;82.01
69035;BME280;56091;55.756;37.412;2023-03-13T03:21:54;97909.34;;;-7.01;82.05
69035;BME280;56091;55.756;37.412;2023-03-13T03:26:54;97910.69;;;-7.05;81.92
69035;BME280;56091;55.756;37.412;2023-03-13T03:32:09;97911.03;;;-7.08;81.60
69035;BME280;56091;55.756;37.412;2023-03-13T03:37:10;97924.13;;;-7.08;81.56
69035;BME280;56091;55.756;37.412;2023-03-13T03:42:13;97931.00;;;-7.07;81.44
69035;BME280;56091;55.756;37.412;2023-03-13T03:47:14;97941.19;;;-7.12;81.21
69035;BME280;56091;55.756;37.412;2023-03-13T03:52:18;97947.47;;;-7.21;80.79
69035;BME280;56091;55.756;37.412;2023-03-13T03:57:19;97960.09;;;-7.17;80.81
69035;BME280;56091;55.756;37.412;2023-03-13T04:02:20;97964.50;;;-7.17;80.94
69035;BME280;56091;55.756;37.412;2023-03-13T04:07:22;97962.06;;;-7.19;81.04
69035;BME280;56091;55.756;37.412;2023-03-13T04:12:24;97976.31;;;-7.21;80.83
69035;BME280;56091;55.756;37.412;2023-03-13T04:17:28;97986.28;;;-7.17;80.79
69035;BME280;56091;55.756;37.412;2023-03-13T04:22:29;98011.00;;;-7.11;80.31
69035;BME280;56091;55.756;37.412;2023-03-13T04:27:32;98003.41;;;-7.06;80.52
69035;BME280;56091;55.756;37.412;2023-03-13T04:32:34;98012.28;;;-7.07;80.52
69035;BME280;56091;55.756;37.412;2023-03-13T04:37:38;98020.41;;;-7.02;80.40
69035;BME280;56091;55.756;37.412;2023-03-13T04:42:44;98022.72;;;-6.99;80.28
69035;BME280;56091;55.756;37.412;2023-03-13T04:47:58;98028.72;;;-6.90;80.18
69035;BME280;56091;55.756;37.412;2023-03-13T04:53:01;98041.47;;;-6.87;79.42
69035;BME280;56091;55.756;37.412;2023-03-13T04:58:25;98057.66;;;-6.75;78.86
69035;BME280;56091;55.756;37.412;2023-03-13T05:03:55;98058.72;;;-6.61;78.85
69035;BME280;56091;55.756;37.412;2023-03-13T05:09:18;98071.25;;;-6.49;78.19
69035;BME280;56091;55.756;37.412;2023-03-13T05:14:34;98087.41;;;-6.37;77.71
69035;BME280;56091;55.756;37.412;2023-03-13T05:20:04;98082.19;;;-6.22;76.45
69035;BME280;56091;55.756;37.412;2023-03-13T05:25:18;98115.63;;;-6.16;76.34
69035;BME280;56091;55.756;37.412;2023-03-13T05:30:45;98110.94;;;-6.05;76.85
69035;BME280;56091;55.756;37.412;2023-03-13T05:36:00;98115.19;;;-6.04;75.71
69035;BME280;56091;55.756;37.412;2023-03-13T05:41:21;98115.13;;;-5.96;75.01
69035;BME280;56091;55.756;37.412;2023-03-13T05:46:40;98120.50;;;-5.75;75.60
69035;BME280;56091;55.756;37.412;2023-03-13T05:51:51;98136.91;;;-5.58;74.96
69035;BME280;56091;55.756;37.412;2023-03-13T05:57:12;98124.16;;;-5.46;74.19
69035;BME280;56091;55.756;37.412;2023-03-13T06:02:33;98139.47;;;-5.35;73.54
69035;BME280;56091;55.756;37.412;2023-03-13T06:07:35;98126.59;;;-5.30;73.38
69035;BME280;56091;55.756;37.412;2023-03-13T06:12:37;98149.09;;;-5.12;72.35
69035;BME280;56091;55.756;37.412;2023-03-13T06:17:39;98141.09;;;-5.04;71.85
69035;BME280;56091;55.756;37.412;2023-03-13T06:22:40;98154.25;;;-4.89;71.45
69035;BME280;56091;55.756;37.412;2023-03-13T06:27:41;98178.63;;;-4.80;70.68
69035;BME280;56091;55.756;37.412;2023-03-13T06:32:42;98199.50;;;-4.64;70.04
69035;BME280;56091;55.756;37.412;2023-03-13T06:37:43;98188.69;;;-4.54;69.67
69035;BME280;56091;55.756;37.412;2023-03-13T06:42:43;98186.38;;;-4.42;69.50
69035;BME280;56091;55.756;37.412;2023-03-13T06:47:44;98195.84;;;-4.12;69.32
69035;BME280;56091;55.756;37.412;2023-03-13T06:52:45;98193.03;;;-3.88;67.30
69035;BME280;56091;55.756;37.412;2023-03-13T06:57:51;98191.00;;;-3.65;67.32
69035;BME280;56091;55.756;37.412;2023-03-13T07:02:57;98209.00;;;-3.47;66.65
69035;BME280;56091;55.756;37.412;2023-03-13T07:07:58;98210.81;;;-3.47;67.11
69035;BME280;56091;55.756;37.412;2023-03-13T07:13:02;98232.84;;;-3.34;66.35
69035;BME280;56091;55.756;37.412;2023-03-13T07:18:03;98233.84;;;-3.35;66.34
69035;BME280;56091;55.756;37.412;2023-03-13T07:23:06;98267.75;;;-3.31;66.43
69035;BME280;56091;55.756;37.412;2023-03-13T07:28:07;98278.66;;;-3.13;66.00
69035;BME280;56091;55.756;37.412;2023-03-13T07:33:11;98279.59;;;-2.99;66.59
69035;BME280;56091;55.756;37.412;2023-03-13T07:38:11;98292.78;;;-2.99;66.54
69035;BME280;56091;55.756;37.412;2023-03-13T07:43:12;98308.00;;;-3.01;67.51
69035;BME280;56091;55.756;37.412;2023-03-13T07:48:13;98275.16;;;-3.20;68.42
69035;BME280;56091;55.756;37.412;2023-03-13T07:53:14;98295.50;;;-3.14;67.41
69035;BME280;56091;55.756;37.412;2023-03-13T07:58:20;98295.34;;;-2.78;65.75
69035;BME280;56091;55.756;37.412;2023-03-13T08:03:22;98303.19;;;-2.63;65.82
69035;BME280;56091;55.756;37.412;2023-03-13T08:08:23;98304.16;;;-2.64;66.00
69035;BME280;56091;55.756;37.412;2023-03-13T08:13:24;98291.47;;;-2.47;66.51
69035;BME280;56091;55.756;37.412;2023-03-13T08:18:25;98287.84;;;-2.81;66.86
69035;BME280;56091;55.756;37.412;2023-03-13T08:23:26;98288.31;;;-2.99;67.78
69035;BME280;56091;55.756;37.412;2023-03-13T08:28:30;98324.66;;;-2.72;68.61
69035;BME280;56091;55.756;37.412;2023-03-13T08:33:31;98328.06;;;-2.44;67.92
69035;BME280;56091;55.756;37.412;2023-03-13T08:38:32;98324.16;;;-2.13;66.87
69035;BME280;56091;55.756;37.412;2023-03-13T08:43:33;98327.25;;;-1.48;64.48
69035;BME280;56091;55.756;37.412;2023-03-13T08:48:34;98354.72;;;-1.49;65.35
69035;BME280;56091;55.756;37.412;2023-03-13T08:53:36;98343.72;;;-1.59;66.10
69035;BME280;56091;55.756;37.412;2023-03-13T08:58:37;98349.63;;;-1.57;65.07
69035;BME280;56091;55.756;37.412;2023-03-13T09:03:39;98369.13;;;-1.58;66.15
69035;BME280;56091;55.756;37.412;2023-03-13T09:08:40;98367.50;;;-1.59;66.65
69035;BME280;56091;55.756;37.412;2023-03-13T09:13:44;98367.03;;;-1.76;65.94
69035;BME280;56091;55.756;37.412;2023-03-13T09:18:45;98347.44;;;-1.95;67.11
69035;BME280;56091;55.756;37.412;2023-03-13T09:23:47;98390.53;;;-1.53;67.54
69035;BME280;56091;55.756;37.412;2023-03-13T09:28:48;98387.50;;;-1.50;66.83
69035;BME280;56091;55.756;37.412;2023-03-13T09:33:50;98402.56;;;-1.44;66.62
69035;BME280;56091;55.756;37.412;2023-03-13T09:38:53;98374.00;;;-1.62;68.85
69035;BME280;56091;55.756;37.412;2023-03-13T09:44:10;98413.16;;;-1.44;69.26
69035;BME280;56091;55.756;37.412;2023-03-13T09:49:26;98404.81;;;-1.34;70.81
69035;BME280;56091;55.756;37.412;2023-03-13T09:54:36;98408.69;;;-1.36;70.05
69035;BME280;56091;55.756;37.412;2023-03-13T10:04:55;98453.41;;;-1.90;70.96
69035;BME280;56091;55.756;37.412;2023-03-13T10:09:59;98448.38;;;-2.41;72.32
69035;BME280;56091;55.756;37.412;2023-03-13T10:20:59;98439.38;;;-2.47;74.50
69035;BME280;56091;55.756;37.412;2023-03-13T10:26:04;98442.53;;;-2.37;72.99
69035;BME280;56091;55.756;37.412;2023-03-13T10:31:13;98455.19;;;-2.53;72.67
69035;BME280;56091;55.756;37.412;2023-03-13T10:36:18;98439.94;;;-2.80;75.14
69035;BME280;56091;55.756;37.412;2023-03-13T10:41:30;98456.75;;;-3.02;78.72
69035;BME280;56091;55.756;37.412;2023-03-13T10:46:35;98478.63;;;-2.87;79.30
69035;BME280;56091;55.756;37.412;2023-03-13T10:51:51;98470.16;;;-2.82;78.21
69035;BME280;56091;55.756;37.412;2023-03-13T10:57:09;98490.75;;;-2.00;75.88
69035;BME280;56091;55.756;37.412;2023-03-13T11:02:26;98544.41;;;-1.78;68.97
69035;BME280;56091;55.756;37.412;2023-03-13T11:07:31;98528.00;;;-1.66;67.85
69035;BME280;56091;55.756;37.412;2023-03-13T11:12:34;98521.41;;;-1.77;67.37
69035;BME280;56091;55.756;37.412;2023-03-13T11:17:38;98520.00;;;-1.73;67.48
69035;BME280;56091;55.756;37.412;2023-03-13T11:22:54;98524.03;;;-1.49;65.60
69035;BME280;56091;55.756;37.412;2023-03-13T11:38:38;98545.81;;;-1.47;65.08
69035;BME280;56091;55.756;37.412;2023-03-13T11:43:54;98577.97;;;-1.43;65.34
69035;BME280;56091;55.756;37.412;2023-03-13T11:55:08;98586.53;;;-1.41;64.22
69035;BME280;56091;55.756;37.412;2023-03-13T12:00:23;98559.84;;;-1.81;65.19
69035;BME280;56091;55.756;37.412;2023-03-13T12:05:37;98581.66;;;-1.72;65.75
69035;BME280;56091;55.756;37.412;2023-03-13T12:10:44;98576.50;;;-1.81;66.05
69035;BME280;56091;55.756;37.412;2023-03-13T12:15:50;98596.16;;;-1.33;65.36
69035;BME280;56091;55.756;37.412;2023-03-13T12:20:57;98578.66;;;-0.93;62.94
69035;BME280;56091;55.756;37.412;2023-03-13T12:31:38;98584.94;;;-1.35;63.78
69035;BME280;56091;55.756;37.412;2023-03-13T12:36:41;98619.47;;;-2.00;64.19
69035;BME280;56091;55.756;37.412;2023-03-13T12:41:47;98598.31;;;-2.00;66.44
69035;BME280;56091;55.756;37.412;2023-03-13T13:08:23;98626.19;;;-1.76;63.59
69035;BME280;56091;55.756;37.412;2023-03-13T13:13:28;98648.53;;;-2.00;63.80
69035;BME280;56091;55.756;37.412;2023-03-13T13:18:32;98641.31;;;-2.13;65.76
69035;BME280;56091;55.756;37.412;2023-03-13T13:23:37;98638.66;;;-2.13;65.68
69035;BME280;56091;55.756;37.412;2023-03-13T13:28:38;98643.94;;;-2.13;65.83
69035;BME280;56091;55.756;37.412;2023-03-13T13:33:43;98649.69;;;-2.09;64.95
69035;BME280;56091;55.756;37.412;2023-03-13T13:38:44;98639.13;;;-1.60;64.30
69035;BME280;56091;55.756;37.412;2023-03-13T13:43:50;98661.34;;;-1.54;61.70
69035;BME280;56091;55.756;37.412;2023-03-13T13:49:16;98654.13;;;-1.88;62.23
69035;BME280;56091;55.756;37.412;2023-03-13T13:59:23;98659.13;;;-2.22;62.75
69035;BME280;56091;55.756;37.412;2023-03-13T14:04:39;98678.13;;;-2.11;62.92
69035;BME280;56091;55.756;37.412;2023-03-13T14:14:42;98671.69;;;-2.24;63.22
69035;BME280;56091;55.756;37.412;2023-03-13T14:19:43;98676.59;;;-2.21;62.73
69035;BME280;56091;55.756;37.412;2023-03-13T14:24:56;98692.97;;;-2.10;62.53
69035;BME280;56091;55.756;37.412;2023-03-13T14:30:05;98695.22;;;-2.29;62.30
69035;BME280;56091;55.756;37.412;2023-03-13T14:35:08;98695.22;;;-2.29;62.56
69035;BME280;56091;55.756;37.412;2023-03-13T14:40:23;98696.78;;;-2.34;62.53
69035;BME280;56091;55.756;37.412;2023-03-13T14:45:32;98697.88;;;-2.07;62.53
69035;BME280;56091;55.756;37.412;2023-03-13T14:50:34;98704.13;;;-0.52;57.40
69035;BME280;56091;55.756;37.412;2023-03-13T14:55:35;98691.00;;;-0.74;58.48
69035;BME280;56091;55.756;37.412;2023-03-13T15:00:42;98693.72;;;-0.61;57.92
69035;BME280;56091;55.756;37.412;2023-03-13T15:05:48;98691.41;;;-0.70;58.11
69035;BME280;56091;55.756;37.412;2023-03-13T15:10:56;98700.31;;;-0.78;58.27
69035;BME280;56091;55.756;37.412;2023-03-13T15:15:57;98711.13;;;-1.86;62.23
69035;BME280;56091;55.756;37.412;2023-03-13T15:21:19;98705.91;;;-2.52;63.25
69035;BME280;56091;55.756;37.412;2023-03-13T15:26:20;98718.69;;;-2.70;64.70
69035;BME280;56091;55.756;37.412;2023-03-13T15:31:28;98713.50;;;-2.93;65.71
69035;BME280;56091;55.756;37.412;2023-03-13T15:36:30;98729.50;;;-3.10;66.16
69035;BME280;56091;55.756;37.412;2023-03-13T15:41:31;98726.94;;;-3.18;66.65
69035;BME280;56091;55.756;37.412;2023-03-13T15:46:32;98731.56;;;-3.20;67.38
69035;BME280;56091;55.756;37.412;2023-03-13T15:51:35;98740.84;;;-3.24;67.24
69035;BME280;56091;55.756;37.412;2023-03-13T15:56:37;98747.66;;;-3.30;67.07
69035;BME280;56091;55.756;37.412;2023-03-13T16:01:38;98721.59;;;-3.48;67.43
69035;BME280;56091;55.756;37.412;2023-03-13T16:06:39;98746.25;;;-3.41;67.77
69035;BME280;56091;55.756;37.412;2023-03-13T16:11:40;98757.44;;;-3.39;68.10
69035;BME280;56091;55.756;37.412;2023-03-13T16:16:41;98774.00;;;-3.45;68.00
69035;BME280;56091;55.756;37.412;2023-03-13T16:21:42;98782.66;;;-3.36;68.43
69035;BME280;56091;55.756;37.412;2023-03-13T16:26:50;98770.16;;;-3.42;68.49
69035;BME280;56091;55.756;37.412;2023-03-13T16:31:51;98777.63;;;-3.46;68.96
69035;BME280;56091;55.756;37.412;2023-03-13T16:36:52;98777.31;;;-3.51;69.13
69035;BME280;56091;55.756;37.412;2023-03-13T16:41:52;98783.94;;;-3.55;69.53
69035;BME280;56091;55.756;37.412;2023-03-13T16:46:53;98798.13;;;-3.56;69.84
69035;BME280;56091;55.756;37.412;2023-03-13T16:51:54;98795.19;;;-3.61;70.33
69035;BME280;56091;55.756;37.412;2023-03-13T16:56:55;98798.00;;;-3.63;70.82
69035;BME280;56091;55.756;37.412;2023-03-13T17:01:56;98798.22;;;-3.73;70.99
69035;BME280;56091;55.756;37.412;2023-03-13T17:06:56;98807.59;;;-3.70;71.63
69035;BME280;56091;55.756;37.412;2023-03-13T17:11:57;98803.03;;;-3.76;71.88
69035;BME280;56091;55.756;37.412;2023-03-13T17:16:58;98811.41;;;-3.73;71.74
69035;BME280;56091;55.756;37.412;2023-03-13T17:21:59;98816.69;;;-3.73;72.30
69035;BME280;56091;55.756;37.412;2023-03-13T17:26:59;98814.38;;;-3.76;72.30
69035;BME280;56091;55.756;37.412;2023-03-13T17:32:00;98814.75;;;-3.79;72.50
69035;BME280;56091;55.756;37.412;2023-03-13T17:37:02;98819.72;;;-3.84;72.46
69035;BME280;56091;55.756;37.412;2023-03-13T17:42:08;98814.13;;;-3.89;72.51
69035;BME280;56091;55.756;37.412;2023-03-13T17:47:16;98823.38;;;-3.93;72.66
69035;BME280;56091;55.756;37.412;2023-03-13T17:52:20;98820.91;;;-3.95;72.64
69035;BME280;56091;55.756;37.412;2023-03-13T17:57:24;98828.53;;;-4.00;72.42
69035;BME280;56091;55.756;37.412;2023-03-13T18:02:26;98821.63;;;-4.01;72.50
69035;BME280;56091;55.756;37.412;2023-03-13T18:07:29;98844.00;;;-3.97;72.05
69035;BME280;56091;55.756;37.412;2023-03-13T18:12:30;98836.28;;;-3.98;72.13
69035;BME280;56091;55.756;37.412;2023-03-13T18:17:31;98842.38;;;-3.98;72.81
69035;BME280;56091;55.756;37.412;2023-03-13T18:22:32;98850.59;;;-4.01;72.78
69035;BME280;56091;55.756;37.412;2023-03-13T18:27:33;98834.31;;;-4.04;72.71
69035;BME280;56091;55.756;37.412;2023-03-13T18:32:34;98834.03;;;-4.09;72.61
69035;BME280;56091;55.756;37.412;2023-03-13T18:37:38;98840.75;;;-4.07;72.55
69035;BME280;56091;55.756;37.412;2023-03-13T18:42:42;98834.41;;;-4.21;72.38
69035;BME280;56091;55.756;37.412;2023-03-13T18:47:43;98839.63;;;-4.13;72.52
69035;BME280;56091;55.756;37.412;2023-03-13T18:52:44;98847.03;;;-4.16;72.56
69035;BME280;56091;55.756;37.412;2023-03-13T18:57:46;98832.13;;;-4.32;72.57
69035;BME280;56091;55.756;37.412;2023-03-13T19:02:47;98837.41;;;-4.40;73.00
69035;BME280;56091;55.756;37.412;2023-03-13T19:07:49;98869.78;;;-4.23;72.51
69035;BME280;56091;55.756;37.412;2023-03-13T19:12:51;98868.16;;;-4.24;72.47
69035;BME280;56091;55.756;37.412;2023-03-13T19:17:52;98867.03;;;-4.30;72.22
69035;BME280;56091;55.756;37.412;2023-03-13T19:22:54;98873.63;;;-4.34;71.67
69035;BME280;56091;55.756;37.412;2023-03-13T19:27:59;98874.91;;;-4.30;71.55
69035;BME280;56091;55.756;37.412;2023-03-13T19:33:00;98848.28;;;-4.52;71.86
69035;BME280;56091;55.756;37.412;2023-03-13T19:38:01;98878.25;;;-4.36;72.20
69035;BME280;56091;55.756;37.412;2023-03-13T19:43:02;98861.13;;;-4.48;71.98
69035;BME280;56091;55.756;37.412;2023-03-13T19:48:02;98848.31;;;-4.60;72.01
69035;BME280;56091;55.756;37.412;2023-03-13T19:53:03;98877.94;;;-4.49;71.94
69035;BME280;56091;55.756;37.412;2023-03-13T19:58:04;98881.88;;;-4.45;72.33
69035;BME280;56091;55.756;37.412;2023-03-13T20:03:06;98883.38;;;-4.51;71.59
69035;BME280;56091;55.756;37.412;2023-03-13T20:08:07;98891.25;;;-4.51;71.74
69035;BME280;56091;55.756;37.412;2023-03-13T20:13:07;98880.41;;;-4.56;71.87
69035;BME280;56091;55.756;37.412;2023-03-13T20:18:08;98866.78;;;-4.68;71.37
69035;BME280;56091;55.756;37.412;2023-03-13T20:23:09;98879.41;;;-4.63;71.71
69035;BME280;56091;55.756;37.412;2023-03-13T20:28:10;98873.34;;;-4.64;71.96
69035;BME280;56091;55.756;37.412;2023-03-13T20:33:11;98874.50;;;-4.58;71.86
69035;BME280;56091;55.756;37.412;2023-03-13T20:38:14;98863.16;;;-4.59;71.84
69035;BME280;56091;55.756;37.412;2023-03-13T20:43:15;98866.06;;;-4.54;71.45
69035;BME280;56091;55.756;37.412;2023-03-13T20:48:18;98859.66;;;-4.51;72.29
69035;BME280;56091;55.756;37.412;2023-03-13T20:53:20;98858.19;;;-4.54;72.06
69035;BME280;56091;55.756;37.412;2023-03-13T20:58:23;98857.03;;;-4.51;72.05
69035;BME280;56091;55.756;37.412;2023-03-13T21:03:25;98853.88;;;-4.46;71.69
69035;BME280;56091;55.756;37.412;2023-03-13T21:08:26;98858.19;;;-4.45;71.19
69035;BME280;56091;55.756;37.412;2023-03-13T21:13:27;98852.25;;;-4.47;70.98
69035;BME280;56091;55.756;37.412;2023-03-13T21:18:28;98851.91;;;-4.44;71.32
69035;BME280;56091;55.756;37.412;2023-03-13T21:23:28;98832.19;;;-4.57;70.86
69035;BME280;56091;55.756;37.412;2023-03-13T21:28:31;98844.84;;;-4.52;71.36
69035;BME280;56091;55.756;37.412;2023-03-13T21:33:31;98856.06;;;-4.58;70.81
69035;BME280;56091;55.756;37.412;2023-03-13T21:38:33;98854.59;;;-4.61;71.37
69035;BME280;56091;55.756;37.412;2023-03-13T21:43:38;98850.16;;;-4.60;71.35
69035;BME280;56091;55.756;37.412;2023-03-13T21:48:42;98840.91;;;-4.56;70.99
69035;BME280;56091;55.756;37.412;2023-03-13T21:53:43;98834.66;;;-4.55;70.53
69035;BME280;56091;55.756;37.412;2023-03-13T21:58:47;98825.63;;;-4.61;70.54
69035;BME280;56091;55.756;37.412;2023-03-13T22:03:48;98834.81;;;-4.48;70.56
69035;BME280;56091;55.756;37.412;2023-03-13T22:08:49;98811.13;;;-4.57;70.73
69035;BME280;56091;55.756;37.412;2023-03-13T22:13:50;98821.59;;;-4.40;70.52
69035;BME280;56091;55.756;37.412;2023-03-13T22:18:52;98816.50;;;-4.34;70.31
69035;BME280;56091;55.756;37.412;2023-03-13T22:23:53;98798.72;;;-4.32;70.12
69035;BME280;56091;55.756;37.412;2023-03-13T22:28:54;98780.59;;;-4.35;69.56
69035;BME280;56091;55.756;37.412;2023-03-13T22:33:55;98788.66;;;-4.28;69.72
69035;BME280;56091;55.756;37.412;2023-03-13T22:38:56;98788.28;;;-4.17;69.54
69035;BME280;56091;55.756;37.412;2023-03-13T22:43:56;98787.91;;;-4.14;69.13
69035;BME280;56091;55.756;37.412;2023-03-13T22:48:57;98780.22;;;-4.15;68.67
69035;BME280;56091;55.756;37.412;2023-03-13T22:53:58;98772.59;;;-4.10;69.32
69035;BME280;56091;55.756;37.412;2023-03-13T22:59:01;98749.72;;;-4.09;69.68
69035;BME280;56091;55.756;37.412;2023-03-13T23:04:03;98750.00;;;-4.04;69.02
69035;BME280;56091;55.756;37.412;2023-03-13T23:09:04;98754.22;;;-3.95;69.30
69035;BME280;56091;55.756;37.412;2023-03-13T23:14:05;98734.91;;;-3.87;68.99
69035;BME280;56091;55.756;37.412;2023-03-13T23:19:06;98728.09;;;-3.82;69.53
69035;BME280;56091;55.756;37.412;2023-03-13T23:24:07;98699.50;;;-3.85;69.05
69035;BME280;56091;55.756;37.412;2023-03-13T23:29:08;98724.34;;;-3.64;68.05
69035;BME280;56091;55.756;37.412;2023-03-13T23:34:09;98716.09;;;-3.61;68.27
69035;BME280;56091;55.756;37.412;2023-03-13T23:39:09;98701.03;;;-3.53;67.77
69035;BME280;56091;55.756;37.412;2023-03-13T23:44:10;98689.13;;;-3.48;67.81
69035;BME280;56091;55.756;37.412;2023-03-13T23:49:11;98677.41;;;-3.46;67.57
69035;BME280;56091;55.756;37.412;2023-03-13T23:54:12;98665.22;;;-3.47;67.09
69035;BME280;56091;55.756;37.412;2023-03-13T23:59:16;98665.44;;;-3.34;67.95
